sensor_id;sensor_type;location;lat;lon;timestamp;P1;durP1;ratioP1;P2;durP2;ratioP2
9906;SDS011;4992;51.628;6.664;2024-03-23T00:51:48;12.23;;;2.50;;
9906;SDS011;4992;51.628;6.664;2024-03-23T00:54:14;4.87;;;1.70;;
9906;SDS011;4992;51.628;6.664;2024-03-23T00:56:39;8.70;;;1.83;;
9906;SDS011;4992;51.628;6.664;2024-03-23T00:59:05;6.53;;;1.50;;
9906;SDS011;4992;51.628;6.664;2024-03-23T01:01:30;8.80;;;1.77;;
9906;SDS011;4992;51.628;6.664;2024-03-23T01:03:56;8.63;;;2.60;;
9906;SDS011;4992;51.628;6.664;2024-03-23T01:06:21;5.80;;;1.40;;
9906;SDS011;4992;51.628;6.664;2024-03-23T01:08:47;9.77;;;1.63;;
9906;SDS011;4992;51.628;6.664;2024-03-23T01:11:13;6.50;;;1.37;;
9906;SDS011;4992;51.628;6.664;2024-03-23T01:13:38;6.90;;;1.60;;
9906;SDS011;4992;51.628;6.664;2024-03-23T01:16:04;6.40;;;1.30;;
9906;SDS011;4992;51.628;6.664;2024-03-23T01:18:29;6.40;;;1.70;;
9906;SDS011;4992;51.628;6.664;2024-03-23T01:20:55;8.10;;;2.03;;
9906;SDS011;4992;51.628;6.664;2024-03-23T01:23:20;5.30;;;1.60;;
9906;SDS011;4992;51.628;6.664;2024-03-23T01:25:52;9.50;;;1.80;;
9906;SDS011;4992;51.628;6.664;2024-03-23T01:28:19;10.73;;;2.23;;
9906;SDS011;4992;51.628;6.664;2024-03-23T01:30:45;13.30;;;2.23;;
9906;SDS011;4992;51.628;6.664;2024-03-23T01:33:10;9.87;;;1.60;;
9906;SDS011;4992;51.628;6.664;2024-03-23T01:35:36;7.27;;;1.57;;
9906;SDS011;4992;51.628;6.664;2024-03-23T01:38:01;7.17;;;2.10;;
9906;SDS011;4992;51.628;6.664;2024-03-23T01:40:27;10.53;;;2.17;;
9906;SDS011;4992;51.628;6.664;2024-03-23T01:43:06;5.30;;;1.93;;
9906;SDS011;4992;51.628;6.664;2024-03-23T01:45:33;11.03;;;2.03;;
9906;SDS011;4992;51.628;6.664;2024-03-23T01:47:59;5.67;;;1.60;;
9906;SDS011;4992;51.628;6.664;2024-03-23T01:50:25;10.50;;;2.20;;
9906;SDS011;4992;51.628;6.664;2024-03-23T01:52:51;7.03;;;1.77;;
9906;SDS011;4992;51.628;6.664;2024-03-23T01:55:17;10.67;;;2.10;;
9906;SDS011;4992;51.628;6.664;2024-03-23T01:57:43;6.07;;;1.70;;
9906;SDS011;4992;51.628;6.664;2024-03-23T02:00:08;6.30;;;2.07;;
9906;SDS011;4992;51.628;6.664;2024-03-23T02:02:37;8.73;;;2.27;;
9906;SDS011;4992;51.628;6.664;2024-03-23T02:05:10;6.90;;;2.33;;
9906;SDS011;4992;51.628;6.664;2024-03-23T02:07:39;7.40;;;1.60;;
9906;SDS011;4992;51.628;6.664;2024-03-23T02:10:06;11.30;;;2.40;;
9906;SDS011;4992;51.628;6.664;2024-03-23T02:12:33;7.33;;;2.03;;
9906;SDS011;4992;51.628;6.664;2024-03-23T02:14:58;6.93;;;2.37;;
9906;SDS011;4992;51.628;6.664;2024-03-23T02:17:24;11.03;;;2.23;;
9906;SDS011;4992;51.628;6.664;2024-03-23T02:19:50;6.37;;;2.23;;
9906;SDS011;4992;51.628;6.664;2024-03-23T02:22:16;8.80;;;2.50;;
9906;SDS011;4992;51.628;6.664;2024-03-23T02:24:42;8.37;;;3.10;;
9906;SDS011;4992;51.628;6.664;2024-03-23T02:27:07;13.60;;;2.77;;
9906;SDS011;4992;51.628;6.664;2024-03-23T02:29:33;14.53;;;2.60;;
9906;SDS011;4992;51.628;6.664;2024-03-23T02:31:59;8.53;;;2.67;;
9906;SDS011;4992;51.628;6.664;2024-03-23T02:34:24;14.43;;;2.90;;
9906;SDS011;4992;51.628;6.664;2024-03-23T02:36:50;10.87;;;2.57;;
9906;SDS011;4992;51.628;6.664;2024-03-23T02:39:15;7.57;;;2.20;;
9906;SDS011;4992;51.628;6.664;2024-03-23T02:41:41;13.73;;;2.70;;
9906;SDS011;4992;51.628;6.664;2024-03-23T02:44:06;15.23;;;2.40;;
9906;SDS011;4992;51.628;6.664;2024-03-23T02:49:54;8.80;;;2.57;;
9906;SDS011;4992;51.628;6.664;2024-03-23T02:52:20;7.80;;;2.47;;
9906;SDS011;4992;51.628;6.664;2024-03-23T02:54:45;15.40;;;3.27;;
9906;SDS011;4992;51.628;6.664;2024-03-23T02:57:11;8.07;;;3.30;;
9906;SDS011;4992;51.628;6.664;2024-03-23T02:59:36;7.50;;;2.60;;
9906;SDS011;4992;51.628;6.664;2024-03-23T03:02:02;8.87;;;3.10;;
9906;SDS011;4992;51.628;6.664;2024-03-23T03:04:29;12.33;;;3.80;;
9906;SDS011;4992;51.628;6.664;2024-03-23T03:06:55;10.17;;;3.83;;
9906;SDS011;4992;51.628;6.664;2024-03-23T03:09:21;8.87;;;3.23;;
9906;SDS011;4992;51.628;6.664;2024-03-23T03:11:46;11.37;;;3.60;;
9906;SDS011;4992;51.628;6.664;2024-03-23T03:14:12;13.87;;;3.83;;
9906;SDS011;4992;51.628;6.664;2024-03-23T03:16:38;15.73;;;3.40;;
9906;SDS011;4992;51.628;6.664;2024-03-23T03:19:03;11.90;;;4.00;;
9906;SDS011;4992;51.628;6.664;2024-03-23T03:21:29;12.57;;;3.17;;
9906;SDS011;4992;51.628;6.664;2024-03-23T03:23:54;8.47;;;2.60;;
9906;SDS011;4992;51.628;6.664;2024-03-23T03:26:21;15.57;;;3.10;;
9906;SDS011;4992;51.628;6.664;2024-03-23T03:28:47;10.63;;;2.90;;
9906;SDS011;4992;51.628;6.664;2024-03-23T03:31:16;11.23;;;3.40;;
9906;SDS011;4992;51.628;6.664;2024-03-23T03:33:43;13.73;;;3.40;;
9906;SDS011;4992;51.628;6.664;2024-03-23T03:36:09;10.33;;;3.40;;
9906;SDS011;4992;51.628;6.664;2024-03-23T03:38:35;9.63;;;3.20;;
9906;SDS011;4992;51.628;6.664;2024-03-23T03:41:01;8.03;;;2.97;;
9906;SDS011;4992;51.628;6.664;2024-03-23T03:43:27;7.93;;;3.43;;
9906;SDS011;4992;51.628;6.664;2024-03-23T03:45:56;11.83;;;3.73;;
9906;SDS011;4992;51.628;6.664;2024-03-23T03:48:22;10.57;;;2.73;;
9906;SDS011;4992;51.628;6.664;2024-03-23T03:50:49;10.33;;;3.10;;
9906;SDS011;4992;51.628;6.664;2024-03-23T03:53:15;10.33;;;2.63;;
9906;SDS011;4992;51.628;6.664;2024-03-23T03:55:41;10.67;;;3.50;;
9906;SDS011;4992;51.628;6.664;2024-03-23T03:58:06;14.90;;;3.40;;
9906;SDS011;4992;51.628;6.664;2024-03-23T04:00:32;12.27;;;3.53;;
9906;SDS011;4992;51.628;6.664;2024-03-23T04:02:57;10.07;;;3.63;;
9906;SDS011;4992;51.628;6.664;2024-03-23T04:05:23;13.43;;;3.50;;
9906;SDS011;4992;51.628;6.664;2024-03-23T04:07:49;14.30;;;4.10;;
9906;SDS011;4992;51.628;6.664;2024-03-23T04:10:15;13.43;;;4.40;;
9906;SDS011;4992;51.628;6.664;2024-03-23T04:12:40;13.40;;;4.03;;
9906;SDS011;4992;51.628;6.664;2024-03-23T04:15:06;10.10;;;3.73;;
9906;SDS011;4992;51.628;6.664;2024-03-23T04:17:33;17.13;;;5.37;;
9906;SDS011;4992;51.628;6.664;2024-03-23T04:19:59;16.60;;;5.03;;
9906;SDS011;4992;51.628;6.664;2024-03-23T04:22:25;12.67;;;4.40;;
9906;SDS011;4992;51.628;6.664;2024-03-23T04:24:55;14.70;;;4.63;;
9906;SDS011;4992;51.628;6.664;2024-03-23T04:27:21;18.33;;;5.73;;
9906;SDS011;4992;51.628;6.664;2024-03-23T04:29:50;14.00;;;5.73;;
9906;SDS011;4992;51.628;6.664;2024-03-23T04:32:17;14.10;;;5.20;;
9906;SDS011;4992;51.628;6.664;2024-03-23T04:34:43;16.27;;;5.40;;
9906;SDS011;4992;51.628;6.664;2024-03-23T04:37:09;13.00;;;5.60;;
9906;SDS011;4992;51.628;6.664;2024-03-23T04:39:38;13.50;;;4.87;;
9906;SDS011;4992;51.628;6.664;2024-03-23T04:42:04;22.20;;;5.40;;
9906;SDS011;4992;51.628;6.664;2024-03-23T04:44:30;19.73;;;5.63;;
9906;SDS011;4992;51.628;6.664;2024-03-23T04:46:56;16.67;;;5.40;;
9906;SDS011;4992;51.628;6.664;2024-03-23T04:49:22;16.03;;;5.93;;
9906;SDS011;4992;51.628;6.664;2024-03-23T04:51:47;17.10;;;6.33;;
9906;SDS011;4992;51.628;6.664;2024-03-23T04:54:13;17.80;;;6.20;;
9906;SDS011;4992;51.628;6.664;2024-03-23T04:56:39;19.03;;;7.00;;
9906;SDS011;4992;51.628;6.664;2024-03-23T04:59:04;16.93;;;6.27;;
9906;SDS011;4992;51.628;6.664;2024-03-23T05:01:33;24.97;;;7.80;;
9906;SDS011;4992;51.628;6.664;2024-03-23T05:03:59;18.40;;;6.93;;
9906;SDS011;4992;51.628;6.664;2024-03-23T05:06:25;16.00;;;7.13;;
9906;SDS011;4992;51.628;6.664;2024-03-23T05:08:51;17.73;;;6.77;;
9906;SDS011;4992;51.628;6.664;2024-03-23T05:11:17;19.30;;;6.63;;
9906;SDS011;4992;51.628;6.664;2024-03-23T05:13:43;16.57;;;6.97;;
9906;SDS011;4992;51.628;6.664;2024-03-23T05:16:08;19.77;;;7.93;;
9906;SDS011;4992;51.628;6.664;2024-03-23T05:18:34;21.13;;;7.90;;
9906;SDS011;4992;51.628;6.664;2024-03-23T05:21:00;23.43;;;7.57;;
9906;SDS011;4992;51.628;6.664;2024-03-23T05:23:27;13.40;;;6.27;;
9906;SDS011;4992;51.628;6.664;2024-03-23T05:25:54;14.93;;;7.23;;
9906;SDS011;4992;51.628;6.664;2024-03-23T05:28:20;19.13;;;6.77;;
9906;SDS011;4992;51.628;6.664;2024-03-23T05:30:52;17.63;;;7.90;;
9906;SDS011;4992;51.628;6.664;2024-03-23T05:33:19;19.70;;;7.03;;
9906;SDS011;4992;51.628;6.664;2024-03-23T05:35:45;16.70;;;6.97;;
9906;SDS011;4992;51.628;6.664;2024-03-23T05:38:11;16.70;;;7.03;;
9906;SDS011;4992;51.628;6.664;2024-03-23T05:40:36;17.63;;;7.53;;
9906;SDS011;4992;51.628;6.664;2024-03-23T05:43:05;16.80;;;6.73;;
9906;SDS011;4992;51.628;6.664;2024-03-23T05:45:31;13.20;;;6.60;;
9906;SDS011;4992;51.628;6.664;2024-03-23T05:47:56;21.03;;;7.10;;
9906;SDS011;4992;51.628;6.664;2024-03-23T05:50:22;17.17;;;7.20;;
9906;SDS011;4992;51.628;6.664;2024-03-23T05:52:48;14.43;;;6.53;;
9906;SDS011;4992;51.628;6.664;2024-03-23T05:55:14;21.37;;;7.63;;
9906;SDS011;4992;51.628;6.664;2024-03-23T05:57:40;16.97;;;6.90;;
9906;SDS011;4992;51.628;6.664;2024-03-23T06:00:07;19.40;;;7.17;;
9906;SDS011;4992;51.628;6.664;2024-03-23T06:02:40;16.47;;;7.13;;
9906;SDS011;4992;51.628;6.664;2024-03-23T06:05:10;19.43;;;7.00;;
9906;SDS011;4992;51.628;6.664;2024-03-23T06:07:36;21.73;;;7.13;;
9906;SDS011;4992;51.628;6.664;2024-03-23T06:10:01;16.27;;;6.53;;
9906;SDS011;4992;51.628;6.664;2024-03-23T06:12:27;16.53;;;6.53;;
9906;SDS011;4992;51.628;6.664;2024-03-23T06:14:53;19.60;;;6.53;;
9906;SDS011;4992;51.628;6.664;2024-03-23T06:17:18;18.50;;;6.80;;
9906;SDS011;4992;51.628;6.664;2024-03-23T06:19:44;11.43;;;6.40;;
9906;SDS011;4992;51.628;6.664;2024-03-23T06:22:10;15.03;;;6.73;;
9906;SDS011;4992;51.628;6.664;2024-03-23T06:24:35;17.77;;;7.23;;
9906;SDS011;4992;51.628;6.664;2024-03-23T06:27:01;21.40;;;8.53;;
9906;SDS011;4992;51.628;6.664;2024-03-23T06:29:26;24.13;;;11.50;;
9906;SDS011;4992;51.628;6.664;2024-03-23T06:31:53;24.60;;;10.67;;
9906;SDS011;4992;51.628;6.664;2024-03-23T06:34:19;15.97;;;7.53;;
9906;SDS011;4992;51.628;6.664;2024-03-23T06:36:46;12.40;;;6.63;;
9906;SDS011;4992;51.628;6.664;2024-03-23T06:39:12;16.77;;;7.23;;
9906;SDS011;4992;51.628;6.664;2024-03-23T06:41:40;20.90;;;7.03;;
9906;SDS011;4992;51.628;6.664;2024-03-23T06:44:16;15.37;;;6.33;;
9906;SDS011;4992;51.628;6.664;2024-03-23T06:46:42;18.63;;;6.83;;
9906;SDS011;4992;51.628;6.664;2024-03-23T06:49:08;20.43;;;6.53;;
9906;SDS011;4992;51.628;6.664;2024-03-23T06:51:33;19.73;;;6.93;;
9906;SDS011;4992;51.628;6.664;2024-03-23T06:53:59;16.97;;;6.90;;
9906;SDS011;4992;51.628;6.664;2024-03-23T06:56:24;20.07;;;6.80;;
9906;SDS011;4992;51.628;6.664;2024-03-23T06:58:50;19.43;;;6.60;;
9906;SDS011;4992;51.628;6.664;2024-03-23T07:01:15;17.87;;;7.20;;
9906;SDS011;4992;51.628;6.664;2024-03-23T07:03:41;18.43;;;6.83;;
9906;SDS011;4992;51.628;6.664;2024-03-23T07:06:07;18.90;;;7.73;;
9906;SDS011;4992;51.628;6.664;2024-03-23T07:08:35;15.97;;;6.57;;
9906;SDS011;4992;51.628;6.664;2024-03-23T07:11:00;18.77;;;7.73;;
9906;SDS011;4992;51.628;6.664;2024-03-23T07:13:27;13.97;;;6.97;;
9906;SDS011;4992;51.628;6.664;2024-03-23T07:15:53;15.20;;;7.00;;
9906;SDS011;4992;51.628;6.664;2024-03-23T07:18:20;16.20;;;6.77;;
9906;SDS011;4992;51.628;6.664;2024-03-23T07:20:53;15.30;;;7.40;;
9906;SDS011;4992;51.628;6.664;2024-03-23T07:23:19;22.07;;;7.73;;
9906;SDS011;4992;51.628;6.664;2024-03-23T07:25:45;16.23;;;7.07;;
9906;SDS011;4992;51.628;6.664;2024-03-23T07:28:20;14.43;;;6.97;;
9906;SDS011;4992;51.628;6.664;2024-03-23T07:30:46;17.73;;;7.30;;
9906;SDS011;4992;51.628;6.664;2024-03-23T07:33:12;17.27;;;8.07;;
9906;SDS011;4992;51.628;6.664;2024-03-23T07:35:37;15.23;;;7.50;;
9906;SDS011;4992;51.628;6.664;2024-03-23T07:38:03;13.77;;;7.60;;
9906;SDS011;4992;51.628;6.664;2024-03-23T07:40:30;15.37;;;7.37;;
9906;SDS011;4992;51.628;6.664;2024-03-23T07:42:56;12.73;;;6.47;;
9906;SDS011;4992;51.628;6.664;2024-03-23T07:45:21;19.10;;;7.37;;
9906;SDS011;4992;51.628;6.664;2024-03-23T07:47:47;21.47;;;7.10;;
9906;SDS011;4992;51.628;6.664;2024-03-23T07:50:12;13.87;;;6.77;;
9906;SDS011;4992;51.628;6.664;2024-03-23T07:52:38;15.07;;;6.53;;
9906;SDS011;4992;51.628;6.664;2024-03-23T07:55:04;15.20;;;6.23;;
9906;SDS011;4992;51.628;6.664;2024-03-23T07:57:29;14.77;;;6.43;;
9906;SDS011;4992;51.628;6.664;2024-03-23T07:59:55;17.77;;;7.27;;
9906;SDS011;4992;51.628;6.664;2024-03-23T08:02:20;13.30;;;5.93;;
9906;SDS011;4992;51.628;6.664;2024-03-23T08:04:46;17.57;;;6.23;;
9906;SDS011;4992;51.628;6.664;2024-03-23T08:07:11;15.67;;;6.80;;
9906;SDS011;4992;51.628;6.664;2024-03-23T08:09:37;16.20;;;6.03;;
9906;SDS011;4992;51.628;6.664;2024-03-23T08:12:02;15.83;;;5.57;;
9906;SDS011;4992;51.628;6.664;2024-03-23T08:14:28;15.20;;;5.40;;
9906;SDS011;4992;51.628;6.664;2024-03-23T08:16:54;12.43;;;5.33;;
9906;SDS011;4992;51.628;6.664;2024-03-23T08:19:19;13.10;;;4.80;;
9906;SDS011;4992;51.628;6.664;2024-03-23T08:21:45;11.83;;;4.93;;
9906;SDS011;4992;51.628;6.664;2024-03-23T08:24:11;12.17;;;4.57;;
9906;SDS011;4992;51.628;6.664;2024-03-23T08:26:36;14.17;;;5.20;;
9906;SDS011;4992;51.628;6.664;2024-03-23T08:29:02;13.40;;;5.07;;
9906;SDS011;4992;51.628;6.664;2024-03-23T08:31:28;15.43;;;5.50;;
9906;SDS011;4992;51.628;6.664;2024-03-23T08:33:54;14.93;;;4.90;;
9906;SDS011;4992;51.628;6.664;2024-03-23T08:36:19;14.13;;;4.27;;
9906;SDS011;4992;51.628;6.664;2024-03-23T08:38:45;13.30;;;3.90;;
9906;SDS011;4992;51.628;6.664;2024-03-23T08:41:10;10.63;;;3.70;;
9906;SDS011;4992;51.628;6.664;2024-03-23T08:43:37;11.57;;;4.30;;
9906;SDS011;4992;51.628;6.664;2024-03-23T08:46:04;7.33;;;3.63;;
9906;SDS011;4992;51.628;6.664;2024-03-23T08:48:31;9.37;;;3.30;;
9906;SDS011;4992;51.628;6.664;2024-03-23T08:51:08;9.60;;;3.17;;
9906;SDS011;4992;51.628;6.664;2024-03-23T08:53:34;9.67;;;3.10;;
9906;SDS011;4992;51.628;6.664;2024-03-23T08:56:00;7.93;;;2.93;;
9906;SDS011;4992;51.628;6.664;2024-03-23T08:58:28;8.13;;;2.80;;
9906;SDS011;4992;51.628;6.664;2024-03-23T09:00:54;11.73;;;3.03;;
9906;SDS011;4992;51.628;6.664;2024-03-23T09:03:21;9.57;;;2.30;;
9906;SDS011;4992;51.628;6.664;2024-03-23T09:05:48;4.27;;;2.10;;
9906;SDS011;4992;51.628;6.664;2024-03-23T09:08:14;8.33;;;2.33;;
9906;SDS011;4992;51.628;6.664;2024-03-23T09:10:39;7.93;;;2.60;;
9906;SDS011;4992;51.628;6.664;2024-03-23T09:13:06;6.03;;;2.47;;
9906;SDS011;4992;51.628;6.664;2024-03-23T09:15:35;10.87;;;2.80;;
9906;SDS011;4992;51.628;6.664;2024-03-23T09:18:01;6.93;;;2.20;;
9906;SDS011;4992;51.628;6.664;2024-03-23T09:20:28;8.57;;;2.23;;
9906;SDS011;4992;51.628;6.664;2024-03-23T09:22:54;8.43;;;2.40;;
9906;SDS011;4992;51.628;6.664;2024-03-23T09:25:19;7.20;;;2.73;;
9906;SDS011;4992;51.628;6.664;2024-03-23T09:27:48;7.03;;;1.97;;
9906;SDS011;4992;51.628;6.664;2024-03-23T09:30:14;8.83;;;2.70;;
9906;SDS011;4992;51.628;6.664;2024-03-23T09:32:43;7.03;;;2.40;;
9906;SDS011;4992;51.628;6.664;2024-03-23T09:35:09;8.80;;;2.27;;
9906;SDS011;4992;51.628;6.664;2024-03-23T09:37:35;6.87;;;1.63;;
9906;SDS011;4992;51.628;6.664;2024-03-23T09:40:01;9.43;;;3.00;;
9906;SDS011;4992;51.628;6.664;2024-03-23T09:42:28;9.13;;;2.13;;
9906;SDS011;4992;51.628;6.664;2024-03-23T09:44:54;9.93;;;2.13;;
9906;SDS011;4992;51.628;6.664;2024-03-23T09:47:23;8.60;;;2.13;;
9906;SDS011;4992;51.628;6.664;2024-03-23T09:49:50;7.03;;;1.97;;
9906;SDS011;4992;51.628;6.664;2024-03-23T09:52:15;5.27;;;2.13;;
9906;SDS011;4992;51.628;6.664;2024-03-23T09:54:41;5.43;;;2.10;;
9906;SDS011;4992;51.628;6.664;2024-03-23T09:57:07;8.73;;;2.23;;
9906;SDS011;4992;51.628;6.664;2024-03-23T09:59:33;4.77;;;1.63;;
9906;SDS011;4992;51.628;6.664;2024-03-23T10:01:59;7.88;;;2.10;;
9906;SDS011;4992;51.628;6.664;2024-03-23T10:04:35;6.47;;;1.95;;
9906;SDS011;4992;51.628;6.664;2024-03-23T10:07:13;6.93;;;2.03;;
9906;SDS011;4992;51.628;6.664;2024-03-23T10:09:40;4.35;;;1.58;;
9906;SDS011;4992;51.628;6.664;2024-03-23T10:12:17;7.00;;;1.98;;
9906;SDS011;4992;51.628;6.664;2024-03-23T10:14:43;7.07;;;1.85;;
9906;SDS011;4992;51.628;6.664;2024-03-23T10:17:13;6.28;;;1.60;;
9906;SDS011;4992;51.628;6.664;2024-03-23T10:19:39;5.25;;;1.42;;
9906;SDS011;4992;51.628;6.664;2024-03-23T10:22:07;3.47;;;1.33;;
9906;SDS011;4992;51.628;6.664;2024-03-23T10:24:33;6.32;;;1.77;;
9906;SDS011;4992;51.628;6.664;2024-03-23T10:26:59;7.10;;;1.40;;
9906;SDS011;4992;51.628;6.664;2024-03-23T10:29:25;5.40;;;1.47;;
9906;SDS011;4992;51.628;6.664;2024-03-23T10:31:52;2.80;;;1.27;;
9906;SDS011;4992;51.628;6.664;2024-03-23T10:34:24;3.73;;;1.37;;
9906;SDS011;4992;51.628;6.664;2024-03-23T10:36:52;3.37;;;1.30;;
9906;SDS011;4992;51.628;6.664;2024-03-23T10:39:19;7.10;;;1.83;;
9906;SDS011;4992;51.628;6.664;2024-03-23T10:41:46;4.10;;;1.20;;
9906;SDS011;4992;51.628;6.664;2024-03-23T10:44:16;4.50;;;0.73;;
9906;SDS011;4992;51.628;6.664;2024-03-23T10:46:44;2.43;;;0.70;;
9906;SDS011;4992;51.628;6.664;2024-03-23T10:49:10;3.20;;;0.80;;
9906;SDS011;4992;51.628;6.664;2024-03-23T10:51:36;2.13;;;0.50;;
9906;SDS011;4992;51.628;6.664;2024-03-23T10:54:04;1.50;;;0.70;;
9906;SDS011;4992;51.628;6.664;2024-03-23T10:56:32;1.40;;;0.50;;
9906;SDS011;4992;51.628;6.664;2024-03-23T10:59:01;0.60;;;0.45;;
9906;SDS011;4992;51.628;6.664;2024-03-23T11:01:28;1.08;;;0.52;;
9906;SDS011;4992;51.628;6.664;2024-03-23T11:03:53;1.30;;;0.70;;
9906;SDS011;4992;51.628;6.664;2024-03-23T11:06:33;2.00;;;0.63;;
9906;SDS011;4992;51.628;6.664;2024-03-23T11:09:03;1.90;;;1.23;;
9906;SDS011;4992;51.628;6.664;2024-03-23T11:11:28;3.78;;;1.10;;
9906;SDS011;4992;51.628;6.664;2024-03-23T11:13:56;3.72;;;1.73;;
9906;SDS011;4992;51.628;6.664;2024-03-23T11:18:49;4.25;;;1.00;;
9906;SDS011;4992;51.628;6.664;2024-03-23T11:24:18;3.03;;;1.20;;
9906;SDS011;4992;51.628;6.664;2024-03-23T11:26:45;6.03;;;1.38;;
9906;SDS011;4992;51.628;6.664;2024-03-23T11:29:12;4.90;;;1.48;;
9906;SDS011;4992;51.628;6.664;2024-03-23T11:31:45;2.45;;;1.25;;
9906;SDS011;4992;51.628;6.664;2024-03-23T11:34:12;5.47;;;1.60;;
9906;SDS011;4992;51.628;6.664;2024-03-23T11:36:38;4.47;;;1.20;;
9906;SDS011;4992;51.628;6.664;2024-03-23T11:39:13;3.95;;;1.13;;
9906;SDS011;4992;51.628;6.664;2024-03-23T11:41:48;7.25;;;1.90;;
9906;SDS011;4992;51.628;6.664;2024-03-23T11:44:18;4.55;;;1.48;;
9906;SDS011;4992;51.628;6.664;2024-03-23T11:46:45;5.47;;;1.35;;
9906;SDS011;4992;51.628;6.664;2024-03-23T11:49:24;6.95;;;1.83;;
9906;SDS011;4992;51.628;6.664;2024-03-23T11:51:50;2.47;;;0.90;;
9906;SDS011;4992;51.628;6.664;2024-03-23T11:54:25;2.72;;;1.10;;
9906;SDS011;4992;51.628;6.664;2024-03-23T11:56:58;3.33;;;1.25;;
9906;SDS011;4992;51.628;6.664;2024-03-23T12:02:13;6.63;;;1.25;;
9906;SDS011;4992;51.628;6.664;2024-03-23T12:04:40;4.05;;;1.58;;
9906;SDS011;4992;51.628;6.664;2024-03-23T12:07:09;2.03;;;1.10;;
9906;SDS011;4992;51.628;6.664;2024-03-23T12:09:40;5.53;;;1.52;;
9906;SDS011;4992;51.628;6.664;2024-03-23T12:12:10;3.22;;;0.88;;
9906;SDS011;4992;51.628;6.664;2024-03-23T12:14:39;2.97;;;1.08;;
9906;SDS011;4992;51.628;6.664;2024-03-23T12:17:12;1.35;;;0.68;;
9906;SDS011;4992;51.628;6.664;2024-03-23T12:19:39;3.17;;;2.00;;
9906;SDS011;4992;51.628;6.664;2024-03-23T12:22:06;4.10;;;2.20;;
9906;SDS011;4992;51.628;6.664;2024-03-23T12:24:32;2.75;;;0.80;;
9906;SDS011;4992;51.628;6.664;2024-03-23T12:27:01;2.75;;;0.80;;
9906;SDS011;4992;51.628;6.664;2024-03-23T12:29:28;3.75;;;1.45;;
9906;SDS011;4992;51.628;6.664;2024-03-23T12:31:54;3.33;;;1.30;;
9906;SDS011;4992;51.628;6.664;2024-03-23T12:34:21;2.70;;;1.13;;
9906;SDS011;4992;51.628;6.664;2024-03-23T12:36:46;4.60;;;1.20;;
9906;SDS011;4992;51.628;6.664;2024-03-23T12:39:12;2.05;;;0.75;;
9906;SDS011;4992;51.628;6.664;2024-03-23T12:41:37;3.65;;;0.70;;
9906;SDS011;4992;51.628;6.664;2024-03-23T12:44:03;1.52;;;0.57;;
9906;SDS011;4992;51.628;6.664;2024-03-23T12:46:28;1.20;;;0.60;;
9906;SDS011;4992;51.628;6.664;2024-03-23T12:48:54;1.80;;;0.82;;
9906;SDS011;4992;51.628;6.664;2024-03-23T12:51:19;2.03;;;0.50;;
9906;SDS011;4992;51.628;6.664;2024-03-23T12:53:45;2.95;;;1.05;;
9906;SDS011;4992;51.628;6.664;2024-03-23T12:56:13;2.75;;;0.70;;
9906;SDS011;4992;51.628;6.664;2024-03-23T12:58:39;1.33;;;0.55;;
9906;SDS011;4992;51.628;6.664;2024-03-23T13:01:04;2.95;;;1.48;;
9906;SDS011;4992;51.628;6.664;2024-03-23T13:03:31;3.55;;;1.30;;
9906;SDS011;4992;51.628;6.664;2024-03-23T13:05:56;1.45;;;0.70;;
9906;SDS011;4992;51.628;6.664;2024-03-23T13:08:22;4.22;;;0.57;;
9906;SDS011;4992;51.628;6.664;2024-03-23T13:10:51;3.30;;;0.95;;
9906;SDS011;4992;51.628;6.664;2024-03-23T13:13:17;3.90;;;1.20;;
9906;SDS011;4992;51.628;6.664;2024-03-23T13:15:42;3.85;;;0.80;;
9906;SDS011;4992;51.628;6.664;2024-03-23T13:18:14;3.78;;;1.20;;
9906;SDS011;4992;51.628;6.664;2024-03-23T13:20:40;2.85;;;0.90;;
9906;SDS011;4992;51.628;6.664;2024-03-23T13:23:05;3.35;;;0.63;;
9906;SDS011;4992;51.628;6.664;2024-03-23T13:25:32;2.40;;;0.90;;
9906;SDS011;4992;51.628;6.664;2024-03-23T13:27:58;3.60;;;0.90;;
9906;SDS011;4992;51.628;6.664;2024-03-23T13:30:23;4.20;;;1.20;;
9906;SDS011;4992;51.628;6.664;2024-03-23T13:32:49;1.95;;;0.77;;
9906;SDS011;4992;51.628;6.664;2024-03-23T13:35:15;1.25;;;0.80;;
9906;SDS011;4992;51.628;6.664;2024-03-23T13:37:41;1.95;;;0.50;;
9906;SDS011;4992;51.628;6.664;2024-03-23T13:40:07;3.63;;;0.70;;
9906;SDS011;4992;51.628;6.664;2024-03-23T13:42:33;3.75;;;0.95;;
9906;SDS011;4992;51.628;6.664;2024-03-23T13:44:58;4.93;;;1.17;;
9906;SDS011;4992;51.628;6.664;2024-03-23T13:47:24;4.60;;;1.30;;
9906;SDS011;4992;51.628;6.664;2024-03-23T13:49:49;2.67;;;1.00;;
9906;SDS011;4992;51.628;6.664;2024-03-23T13:52:15;3.00;;;1.00;;
9906;SDS011;4992;51.628;6.664;2024-03-23T13:54:41;3.47;;;1.10;;
9906;SDS011;4992;51.628;6.664;2024-03-23T13:57:11;4.03;;;1.20;;
9906;SDS011;4992;51.628;6.664;2024-03-23T13:59:36;2.88;;;1.05;;
9906;SDS011;4992;51.628;6.664;2024-03-23T14:02:02;2.78;;;1.00;;
9906;SDS011;4992;51.628;6.664;2024-03-23T14:04:28;4.60;;;0.73;;
9906;SDS011;4992;51.628;6.664;2024-03-23T14:06:54;5.40;;;1.20;;
9906;SDS011;4992;51.628;6.664;2024-03-23T14:09:19;2.85;;;1.02;;
9906;SDS011;4992;51.628;6.664;2024-03-23T14:11:50;4.25;;;1.13;;
9906;SDS011;4992;51.628;6.664;2024-03-23T14:14:16;3.20;;;0.95;;
9906;SDS011;4992;51.628;6.664;2024-03-23T14:16:42;1.92;;;1.15;;
9906;SDS011;4992;51.628;6.664;2024-03-23T14:19:09;4.32;;;1.00;;
9906;SDS011;4992;51.628;6.664;2024-03-23T14:21:34;1.80;;;0.60;;
9906;SDS011;4992;51.628;6.664;2024-03-23T14:24:00;1.70;;;0.60;;
9906;SDS011;4992;51.628;6.664;2024-03-23T14:26:26;3.40;;;1.02;;
9906;SDS011;4992;51.628;6.664;2024-03-23T14:28:52;2.65;;;0.70;;
9906;SDS011;4992;51.628;6.664;2024-03-23T14:31:17;4.15;;;0.95;;
9906;SDS011;4992;51.628;6.664;2024-03-23T14:33:43;2.45;;;0.80;;
9906;SDS011;4992;51.628;6.664;2024-03-23T14:36:15;3.13;;;1.08;;
9906;SDS011;4992;51.628;6.664;2024-03-23T14:38:42;3.80;;;0.85;;
9906;SDS011;4992;51.628;6.664;2024-03-23T14:41:11;2.88;;;0.88;;
9906;SDS011;4992;51.628;6.664;2024-03-23T14:43:37;2.03;;;1.00;;
9906;SDS011;4992;51.628;6.664;2024-03-23T14:46:09;3.42;;;1.23;;
9906;SDS011;4992;51.628;6.664;2024-03-23T14:48:37;3.58;;;1.30;;
9906;SDS011;4992;51.628;6.664;2024-03-23T14:51:03;3.42;;;1.13;;
9906;SDS011;4992;51.628;6.664;2024-03-23T14:53:30;2.63;;;1.02;;
9906;SDS011;4992;51.628;6.664;2024-03-23T14:55:57;2.67;;;1.30;;
9906;SDS011;4992;51.628;6.664;2024-03-23T14:58:22;3.60;;;1.25;;
9906;SDS011;4992;51.628;6.664;2024-03-23T15:00:49;3.28;;;0.98;;
9906;SDS011;4992;51.628;6.664;2024-03-23T15:03:15;1.35;;;1.00;;
9906;SDS011;4992;51.628;6.664;2024-03-23T15:05:40;2.47;;;0.85;;
9906;SDS011;4992;51.628;6.664;2024-03-23T15:08:06;2.75;;;1.02;;
9906;SDS011;4992;51.628;6.664;2024-03-23T15:10:35;3.00;;;0.90;;
9906;SDS011;4992;51.628;6.664;2024-03-23T15:13:00;3.03;;;0.80;;
9906;SDS011;4992;51.628;6.664;2024-03-23T15:15:26;4.03;;;0.90;;
9906;SDS011;4992;51.628;6.664;2024-03-23T15:17:52;5.15;;;0.80;;
9906;SDS011;4992;51.628;6.664;2024-03-23T15:20:17;4.20;;;0.98;;
9906;SDS011;4992;51.628;6.664;2024-03-23T15:22:43;4.65;;;1.05;;
9906;SDS011;4992;51.628;6.664;2024-03-23T15:25:08;3.28;;;0.90;;
9906;SDS011;4992;51.628;6.664;2024-03-23T15:27:34;3.08;;;0.75;;
9906;SDS011;4992;51.628;6.664;2024-03-23T15:30:00;4.07;;;1.10;;
9906;SDS011;4992;51.628;6.664;2024-03-23T15:32:25;3.47;;;1.02;;
9906;SDS011;4992;51.628;6.664;2024-03-23T15:34:51;2.22;;;0.70;;
9906;SDS011;4992;51.628;6.664;2024-03-23T15:37:17;4.90;;;0.90;;
9906;SDS011;4992;51.628;6.664;2024-03-23T15:39:43;6.95;;;1.02;;
9906;SDS011;4992;51.628;6.664;2024-03-23T15:42:08;3.85;;;0.90;;
9906;SDS011;4992;51.628;6.664;2024-03-23T15:44:35;4.13;;;1.25;;
9906;SDS011;4992;51.628;6.664;2024-03-23T15:47:00;4.10;;;1.02;;
9906;SDS011;4992;51.628;6.664;2024-03-23T15:49:26;4.72;;;1.25;;
9906;SDS011;4992;51.628;6.664;2024-03-23T15:51:51;5.75;;;1.45;;
9906;SDS011;4992;51.628;6.664;2024-03-23T15:54:18;5.10;;;1.38;;
9906;SDS011;4992;51.628;6.664;2024-03-23T15:56:44;4.63;;;1.15;;
9906;SDS011;4992;51.628;6.664;2024-03-23T15:59:09;5.15;;;1.35;;
9906;SDS011;4992;51.628;6.664;2024-03-23T16:01:35;4.93;;;1.13;;
9906;SDS011;4992;51.628;6.664;2024-03-23T16:04:01;5.47;;;1.53;;
9906;SDS011;4992;51.628;6.664;2024-03-23T16:06:26;4.73;;;1.27;;
9906;SDS011;4992;51.628;6.664;2024-03-23T16:08:52;5.13;;;1.77;;